createdAt,value
2023-04-21T00:00:07.648Z,0.00
2023-04-21T00:01:07.662Z,0.00
2023-04-21T00:02:07.690Z,0.00
2023-04-21T00:03:07.860Z,0.00
2023-04-21T00:04:07.859Z,0.00
2023-04-21T00:05:07.971Z,0.00
2023-04-21T00:06:07.661Z,0.00
2023-04-21T00:07:07.662Z,0.00
2023-04-21T00:08:07.658Z,0.00
2023-04-21T00:09:07.668Z,0.00
2023-04-21T00:10:07.706Z,0.00
2023-04-21T00:11:07.677Z,0.00
2023-04-21T00:12:07.680Z,0.00
2023-04-21T00:13:07.674Z,0.00
2023-04-21T00:14:07.679Z,0.00
2023-04-21T00:15:07.707Z,0.00
2023-04-21T00:16:07.732Z,0.00
2023-04-21T00:17:07.677Z,0.00
2023-04-21T00:18:07.769Z,0.00
2023-04-21T00:19:07.724Z,0.00
2023-04-21T00:20:07.682Z,0.00
2023-04-21T00:21:07.680Z,0.00
2023-04-21T00:22:07.837Z,0.00
2023-04-21T00:23:07.683Z,0.00
2023-04-21T00:24:07.692Z,0.00
2023-04-21T00:25:07.690Z,0.00
2023-04-21T00:26:07.694Z,0.00
2023-04-21T00:27:07.696Z,0.00
2023-04-21T00:28:07.695Z,0.00
2023-04-21T00:29:07.716Z,0.00
2023-04-21T00:30:07.699Z,0.00
2023-04-21T00:31:07.857Z,0.00
2023-04-21T00:32:07.714Z,0.00
2023-04-21T00:33:07.703Z,0.00
2023-04-21T00:34:07.708Z,0.00
2023-04-21T00:35:07.711Z,0.00
2023-04-21T00:36:07.712Z,0.00
2023-04-21T00:37:07.723Z,0.00
2023-04-21T00:38:07.724Z,0.00
2023-04-21T00:39:07.717Z,0.00
2023-04-21T00:40:07.717Z,0.00
2023-04-21T00:41:07.726Z,0.00
2023-04-21T00:42:07.719Z,0.00
2023-04-21T00:43:07.774Z,0.00
2023-04-21T00:44:07.750Z,0.00
2023-04-21T00:45:07.731Z,0.00
2023-04-21T00:46:07.733Z,0.00
2023-04-21T00:47:07.784Z,0.00
2023-04-21T00:48:07.828Z,0.00
2023-04-21T00:49:07.743Z,0.00
2023-04-21T00:50:07.750Z,0.00
2023-04-21T00:51:07.741Z,0.00
2023-04-21T00:52:07.750Z,0.00
2023-04-21T00:53:07.757Z,0.00
2023-04-21T00:54:07.759Z,0.00
2023-04-21T00:55:07.748Z,0.00
2023-04-21T00:56:07.751Z,0.00
2023-04-21T00:57:07.756Z,0.00
2023-04-21T00:58:07.759Z,0.00
2023-04-21T00:59:07.763Z,0.00
2023-04-21T01:00:07.764Z,0.00
2023-04-21T01:01:07.795Z,0.00
2023-04-21T01:02:07.945Z,0.00
2023-04-21T01:03:08.110Z,0.00
2023-04-21T01:04:07.945Z,0.00
2023-04-21T01:05:07.773Z,0.00
2023-04-21T01:06:07.771Z,0.00
2023-04-21T01:07:07.799Z,0.00
2023-04-21T01:08:07.784Z,0.00
2023-04-21T01:09:07.775Z,0.00
2023-04-21T01:10:07.793Z,0.00
2023-04-21T01:11:07.778Z,0.00
2023-04-21T01:12:07.789Z,0.00
2023-04-21T01:13:07.782Z,0.00
2023-04-21T01:14:07.789Z,0.00
2023-04-21T01:15:07.793Z,0.00
2023-04-21T01:16:07.802Z,0.00
2023-04-21T01:17:07.915Z,0.00
2023-04-21T01:18:07.825Z,0.00
2023-04-21T01:19:07.856Z,0.00
2023-04-21T01:20:07.803Z,0.00
2023-04-21T01:21:07.803Z,0.00
2023-04-21T01:22:07.810Z,0.00
2023-04-21T01:23:07.837Z,0.00
2023-04-21T01:24:07.823Z,0.00
2023-04-21T01:25:07.807Z,0.00
2023-04-21T01:26:07.811Z,0.00
2023-04-21T01:27:07.813Z,0.00
2023-04-21T01:28:07.816Z,0.00
2023-04-21T01:29:07.824Z,0.00
2023-04-21T01:30:07.830Z,0.00
2023-04-21T01:31:07.817Z,0.00
2023-04-21T01:32:07.981Z,0.00
2023-04-21T01:33:07.870Z,0.00
2023-04-21T01:34:07.830Z,0.00
2023-04-21T01:35:07.869Z,0.00
2023-04-21T01:36:07.836Z,0.00
2023-04-21T01:37:07.838Z,0.00
2023-04-21T01:38:07.845Z,0.00
2023-04-21T01:39:07.840Z,0.00
2023-04-21T01:40:07.837Z,0.00
2023-04-21T01:41:07.842Z,0.00
2023-04-21T01:42:07.845Z,0.00
2023-04-21T01:43:07.839Z,0.00
2023-04-21T01:44:07.852Z,0.00
2023-04-21T01:45:07.863Z,0.00
2023-04-21T01:46:07.980Z,0.00
2023-04-21T01:47:07.856Z,0.00
2023-04-21T01:48:07.895Z,0.00
2023-04-21T01:49:07.874Z,0.00
2023-04-21T01:50:07.870Z,0.00
2023-04-21T01:51:07.911Z,0.00
2023-04-21T01:52:07.870Z,0.00
2023-04-21T01:53:07.873Z,0.00
2023-04-21T01:54:07.864Z,0.00
2023-04-21T01:55:07.893Z,0.00
2023-04-21T01:56:07.869Z,0.00
2023-04-21T01:57:08.002Z,0.00
2023-04-21T01:58:07.876Z,0.00
2023-04-21T01:59:07.872Z,0.00
2023-04-21T02:00:07.884Z,0.00
2023-04-21T02:01:07.950Z,0.00
2023-04-21T02:02:08.037Z,0.00
2023-04-21T02:03:08.089Z,0.00
2023-04-21T02:04:08.108Z,0.00
2023-04-21T02:05:07.893Z,0.00
2023-04-21T02:06:07.893Z,0.00
2023-04-21T02:07:07.915Z,0.00
2023-04-21T02:08:07.904Z,0.00
2023-04-21T02:09:07.915Z,0.00
2023-04-21T02:10:07.894Z,0.00
2023-04-21T02:11:07.892Z,0.00
2023-04-21T02:12:07.910Z,0.00
2023-04-21T02:13:07.904Z,0.00
2023-04-21T02:14:07.913Z,0.00
2023-04-21T02:15:07.910Z,0.00
2023-04-21T02:16:13.794Z,0.00
2023-04-21T02:17:07.911Z,0.00
2023-04-21T02:18:07.972Z,0.00
2023-04-21T02:19:07.912Z,0.00
2023-04-21T02:20:07.913Z,0.00
2023-04-21T02:21:07.928Z,0.00
2023-04-21T02:22:07.908Z,0.00
2023-04-21T02:23:07.937Z,0.00
2023-04-21T02:24:07.914Z,0.00
2023-04-21T02:25:07.919Z,0.00
2023-04-21T02:26:07.939Z,0.00
2023-04-21T02:27:07.931Z,0.00
2023-04-21T02:28:07.933Z,0.00
2023-04-21T02:29:07.946Z,0.00
2023-04-21T02:30:07.953Z,0.00
2023-04-21T02:31:07.944Z,0.00
2023-04-21T02:33:07.995Z,0.00
2023-04-21T02:34:07.938Z,0.00
2023-04-21T02:35:07.952Z,0.00
2023-04-21T02:36:07.953Z,0.00
2023-04-21T02:37:07.946Z,0.00
2023-04-21T02:38:07.947Z,0.00
2023-04-21T02:39:07.966Z,0.00
2023-04-21T02:40:07.963Z,0.00
2023-04-21T02:41:07.951Z,0.00
2023-04-21T02:42:07.959Z,0.00
2023-04-21T02:43:07.951Z,0.00
2023-04-21T02:44:07.961Z,0.00
2023-04-21T02:45:07.958Z,0.00
2023-04-21T02:46:08.109Z,0.00
2023-04-21T02:47:08.265Z,0.00
2023-04-21T02:48:07.973Z,0.00
2023-04-21T02:49:07.990Z,0.00
2023-04-21T02:50:07.966Z,0.00
2023-04-21T02:51:07.968Z,0.00
2023-04-21T02:52:07.968Z,0.00
2023-04-21T02:53:07.978Z,0.00
2023-04-21T02:54:08.006Z,0.00
2023-04-21T02:55:08.004Z,0.00
2023-04-21T02:56:07.984Z,0.00
2023-04-21T02:57:07.993Z,0.00
2023-04-21T02:58:07.980Z,0.00
2023-04-21T02:59:07.986Z,0.00
2023-04-21T03:00:07.999Z,0.00
2023-04-21T03:01:08.009Z,0.00
2023-04-21T03:02:08.058Z,0.00
2023-04-21T03:03:08.432Z,0.00
2023-04-21T03:04:08.096Z,0.00
2023-04-21T03:05:07.998Z,0.00
2023-04-21T03:06:07.995Z,0.00
2023-04-21T03:07:07.997Z,0.00
2023-04-21T03:08:08.030Z,0.00
2023-04-21T03:09:08.004Z,0.00
2023-04-21T03:10:07.995Z,0.00
2023-04-21T03:11:08.025Z,0.00
2023-04-21T03:12:08.009Z,0.00
2023-04-21T03:13:08.317Z,0.00
2023-04-21T03:14:08.004Z,0.00
2023-04-21T03:15:08.011Z,0.00
2023-04-21T03:16:08.039Z,0.00
2023-04-21T03:17:08.029Z,0.00
2023-04-21T03:18:08.044Z,0.00
2023-04-21T03:19:08.166Z,0.00
2023-04-21T03:20:08.044Z,0.00
2023-04-21T03:21:08.021Z,0.00
2023-04-21T03:22:08.035Z,0.00
2023-04-21T03:23:08.027Z,0.00
2023-04-21T03:24:08.030Z,0.00
2023-04-21T03:25:08.075Z,0.00
2023-04-21T03:26:08.030Z,0.00
2023-04-21T03:27:10.422Z,0.00
2023-04-21T03:28:08.043Z,0.00
2023-04-21T03:29:08.040Z,0.00
2023-04-21T03:30:08.042Z,0.00
2023-04-21T03:31:08.050Z,0.00
2023-04-21T03:32:08.076Z,0.00
2023-04-21T03:33:08.115Z,0.00
2023-04-21T03:34:08.044Z,0.00
2023-04-21T03:35:08.202Z,0.00
2023-04-21T03:36:08.073Z,0.00
2023-04-21T03:37:08.067Z,0.00
2023-04-21T03:38:08.052Z,0.00
2023-04-21T03:39:19.319Z,0.00
2023-04-21T03:40:08.054Z,0.00
2023-04-21T03:41:08.064Z,0.00
2023-04-21T03:42:08.057Z,0.00
2023-04-21T03:43:08.087Z,0.00
2023-04-21T03:44:08.067Z,0.00
2023-04-21T03:45:08.063Z,0.00
2023-04-21T03:46:08.171Z,0.00
2023-04-21T03:47:08.075Z,0.00
2023-04-21T03:48:08.099Z,0.00
2023-04-21T03:49:08.069Z,0.00
2023-04-21T03:50:08.086Z,0.00
2023-04-21T03:51:08.085Z,0.00
2023-04-21T03:52:08.095Z,0.00
2023-04-21T03:53:08.078Z,0.00
2023-04-21T03:54:08.083Z,0.00
2023-04-21T03:55:08.085Z,0.00
2023-04-21T03:56:08.085Z,0.00
2023-04-21T03:57:08.083Z,0.00
2023-04-21T03:58:08.096Z,0.00
2023-04-21T03:59:08.124Z,0.00
2023-04-21T04:00:08.094Z,0.00
2023-04-21T04:01:08.090Z,0.00
2023-04-21T04:02:08.246Z,0.00
2023-04-21T04:03:08.210Z,0.00
2023-04-21T04:04:08.333Z,0.00
2023-04-21T04:05:08.169Z,0.00
2023-04-21T04:06:08.102Z,0.00
2023-04-21T04:07:08.120Z,0.00
2023-04-21T04:08:08.105Z,0.00
2023-04-21T04:09:08.110Z,0.00
2023-04-21T04:10:08.102Z,0.00
2023-04-21T04:11:08.123Z,0.00
2023-04-21T04:12:09.463Z,0.00
2023-04-21T04:13:08.115Z,0.00
2023-04-21T04:14:08.116Z,0.00
2023-04-21T04:15:08.147Z,0.00
2023-04-21T04:16:08.219Z,0.00
2023-04-21T04:17:08.124Z,0.00
2023-04-21T04:18:08.181Z,0.00
2023-04-21T04:19:08.143Z,0.00
2023-04-21T04:20:08.129Z,0.00
2023-04-21T04:21:08.135Z,0.00
2023-04-21T04:22:08.126Z,0.00
2023-04-21T04:23:08.139Z,0.00
2023-04-21T04:24:08.135Z,0.00
2023-04-21T04:25:08.134Z,0.00
2023-04-21T04:26:08.136Z,0.00
2023-04-21T04:27:08.140Z,0.00
2023-04-21T04:28:08.139Z,0.00
2023-04-21T04:29:08.142Z,0.00
2023-04-21T04:30:08.147Z,0.00
2023-04-21T04:31:08.205Z,0.00
2023-04-21T04:32:08.148Z,0.00
2023-04-21T04:33:08.200Z,0.00
2023-04-21T04:34:08.158Z,0.00
2023-04-21T04:35:08.190Z,0.00
2023-04-21T04:36:08.162Z,0.00
2023-04-21T04:37:08.185Z,0.00
2023-04-21T04:38:08.157Z,0.00
2023-04-21T04:39:09.455Z,0.00
2023-04-21T04:40:08.161Z,0.00
2023-04-21T04:41:08.162Z,0.00
2023-04-21T04:42:08.168Z,0.00
2023-04-21T04:43:08.167Z,0.00
2023-04-21T04:44:08.169Z,0.00
2023-04-21T04:45:08.172Z,0.00
2023-04-21T04:46:08.202Z,0.00
2023-04-21T04:47:08.234Z,0.00
2023-04-21T04:48:08.178Z,0.00
2023-04-21T04:49:08.172Z,0.00
2023-04-21T04:50:08.185Z,0.00
2023-04-21T04:51:08.186Z,0.00
2023-04-21T04:52:08.341Z,5.63
2023-04-21T04:53:08.173Z,5.63
2023-04-21T04:54:08.184Z,5.63
2023-04-21T04:55:08.213Z,5.63
2023-04-21T04:56:08.202Z,5.63
2023-04-21T04:57:08.188Z,5.63
2023-04-21T04:58:08.188Z,5.63
2023-04-21T04:59:08.192Z,5.63
2023-04-21T05:00:08.200Z,5.63
2023-04-21T05:01:08.213Z,5.63
2023-04-21T05:02:08.334Z,5.63
2023-04-21T05:03:08.427Z,5.63
2023-04-21T05:04:08.417Z,5.63
2023-04-21T05:05:08.385Z,5.63
2023-04-21T05:06:08.212Z,5.63
2023-04-21T05:07:08.220Z,5.63
2023-04-21T05:08:08.210Z,5.63
2023-04-21T05:09:08.210Z,5.63
2023-04-21T05:10:08.214Z,5.63
2023-04-21T05:11:08.215Z,5.63
2023-04-21T05:12:08.271Z,5.63
2023-04-21T05:13:08.225Z,5.63
2023-04-21T05:14:08.220Z,5.63
2023-04-21T05:15:08.221Z,5.63
2023-04-21T05:16:08.244Z,5.63
2023-04-21T05:17:08.232Z,5.63
2023-04-21T05:18:08.237Z,5.63
2023-04-21T05:19:08.252Z,5.63
2023-04-21T05:20:08.250Z,5.63
2023-04-21T05:21:08.255Z,5.63
2023-04-21T05:22:08.235Z,5.63
2023-04-21T05:23:08.240Z,5.63
2023-04-21T05:24:08.234Z,5.63
2023-04-21T05:25:08.235Z,5.63
2023-04-21T05:26:08.243Z,5.63
2023-04-21T05:27:08.260Z,5.63
2023-04-21T05:28:08.241Z,5.63
2023-04-21T05:29:08.251Z,5.63
2023-04-21T05:30:08.250Z,5.63
2023-04-21T05:31:08.262Z,5.63
2023-04-21T05:32:08.355Z,5.63
2023-04-21T05:33:08.261Z,5.63
2023-04-21T05:34:08.254Z,5.63
2023-04-21T05:35:08.293Z,5.63
2023-04-21T05:36:08.268Z,5.63
2023-04-21T05:37:08.258Z,5.63
2023-04-21T05:38:08.259Z,5.63
2023-04-21T05:39:08.260Z,5.63
2023-04-21T05:40:08.261Z,5.63
2023-04-21T05:41:08.260Z,5.63
2023-04-21T05:42:08.265Z,5.63
2023-04-21T05:43:08.268Z,5.63
2023-04-21T05:44:08.271Z,5.63
2023-04-21T05:45:08.269Z,5.63
2023-04-21T05:46:08.345Z,5.63
2023-04-21T05:47:08.275Z,5.63
2023-04-21T05:48:08.429Z,5.63
2023-04-21T05:49:08.280Z,5.63
2023-04-21T05:50:08.282Z,5.63
2023-04-21T05:51:08.308Z,5.63
2023-04-21T05:52:08.281Z,5.63
2023-04-21T05:53:08.279Z,5.63
2023-04-21T05:54:08.284Z,5.63
2023-04-21T05:55:08.283Z,5.63
2023-04-21T05:56:08.284Z,5.63
2023-04-21T05:57:08.286Z,5.63
2023-04-21T05:58:08.282Z,5.63
2023-04-21T05:59:08.285Z,5.63
2023-04-21T06:00:08.292Z,5.63
2023-04-21T06:01:08.289Z,5.63
2023-04-21T06:02:08.427Z,5.63
2023-04-21T06:03:08.419Z,5.63
2023-04-21T06:04:08.509Z,5.63
2023-04-21T06:05:08.476Z,5.63
2023-04-21T06:06:08.294Z,5.63
2023-04-21T06:07:08.332Z,5.63
2023-04-21T06:08:08.304Z,5.63
2023-04-21T06:09:08.300Z,5.63
2023-04-21T06:10:08.304Z,5.63
2023-04-21T06:11:08.316Z,5.63
2023-04-21T06:12:08.302Z,5.63
2023-04-21T06:13:08.301Z,5.63
2023-04-21T06:14:08.300Z,5.63
2023-04-21T06:15:08.303Z,5.63
2023-04-21T06:16:08.372Z,5.63
2023-04-21T06:17:08.325Z,5.63
2023-04-21T06:18:08.328Z,5.63
2023-04-21T06:19:08.320Z,5.63
2023-04-21T06:20:08.320Z,5.63
2023-04-21T06:21:08.325Z,5.63
2023-04-21T06:22:08.329Z,5.63
2023-04-21T06:23:08.349Z,5.63
2023-04-21T06:24:08.340Z,5.63
2023-04-21T06:25:08.321Z,5.63
2023-04-21T06:26:08.321Z,5.63
2023-04-21T06:27:08.478Z,11.25
2023-04-21T06:28:08.326Z,11.25
2023-04-21T06:29:08.336Z,11.25
2023-04-21T06:30:08.330Z,11.25
2023-04-21T06:31:09.250Z,11.25
2023-04-21T06:32:08.496Z,11.25
2023-04-21T06:33:08.379Z,11.25
2023-04-21T06:34:08.336Z,11.25
2023-04-21T06:35:08.334Z,11.25
2023-04-21T06:36:08.335Z,11.25
2023-04-21T06:37:08.327Z,11.25
2023-04-21T06:38:08.333Z,11.25
2023-04-21T06:39:08.375Z,11.25
2023-04-21T06:40:08.341Z,11.25
2023-04-21T06:41:08.340Z,11.25
2023-04-21T06:42:08.336Z,11.25
2023-04-21T06:43:08.340Z,11.25
2023-04-21T06:44:08.338Z,11.25
2023-04-21T06:45:08.337Z,11.25
2023-04-21T06:46:08.342Z,11.25
2023-04-21T06:47:08.398Z,11.25
2023-04-21T06:48:08.372Z,11.25
2023-04-21T06:49:08.340Z,11.25
2023-04-21T06:50:08.347Z,11.25
2023-04-21T06:51:08.341Z,11.25
2023-04-21T06:52:08.352Z,11.25
2023-04-21T06:53:08.366Z,11.25
2023-04-21T06:54:08.362Z,11.25
2023-04-21T06:55:08.428Z,11.25
2023-04-21T06:56:08.351Z,11.25
2023-04-21T06:57:08.367Z,11.25
2023-04-21T06:58:08.349Z,11.25
2023-04-21T06:59:08.367Z,11.25
2023-04-21T07:00:08.357Z,11.25
2023-04-21T07:01:08.402Z,11.25
2023-04-21T07:02:08.392Z,11.25
2023-04-21T07:03:08.475Z,11.25
2023-04-21T07:04:08.417Z,11.25
2023-04-21T07:05:08.357Z,11.25
2023-04-21T07:06:08.351Z,11.25
2023-04-21T07:07:08.355Z,11.25
2023-04-21T07:08:08.367Z,11.25
2023-04-21T07:09:08.366Z,11.25
2023-04-21T07:10:08.361Z,11.25
2023-04-21T07:11:08.398Z,11.25
2023-04-21T07:12:08.363Z,11.25
2023-04-21T07:13:10.045Z,11.25
2023-04-21T07:14:08.364Z,11.25
2023-04-21T07:15:08.363Z,11.25
2023-04-21T07:16:08.422Z,11.25
2023-04-21T07:17:08.406Z,11.25
2023-04-21T07:18:08.445Z,11.25
2023-04-21T07:19:08.366Z,11.25
2023-04-21T07:20:08.381Z,11.25
2023-04-21T07:21:08.372Z,11.25
2023-04-21T07:22:08.377Z,11.25
2023-04-21T07:23:08.370Z,11.25
2023-04-21T07:24:08.406Z,11.25
2023-04-21T07:25:08.396Z,11.25
2023-04-21T07:26:08.405Z,11.25
2023-04-21T07:27:08.398Z,11.25
2023-04-21T07:28:08.392Z,11.25
2023-04-21T07:29:08.372Z,11.25
2023-04-21T07:30:08.385Z,11.25
2023-04-21T07:31:08.414Z,11.25
2023-04-21T07:32:08.380Z,11.25
2023-04-21T07:33:08.422Z,11.25
2023-04-21T07:34:08.384Z,11.25
2023-04-21T07:35:08.389Z,11.25
2023-04-21T07:36:08.384Z,11.25
2023-04-21T07:37:08.393Z,11.25
2023-04-21T07:38:08.396Z,11.25
2023-04-21T07:39:08.384Z,11.25
2023-04-21T07:40:08.390Z,11.25
2023-04-21T07:41:08.385Z,11.25
2023-04-21T07:42:08.458Z,11.25
2023-04-21T07:43:08.415Z,11.25
2023-04-21T07:44:08.386Z,11.25
2023-04-21T07:45:08.387Z,11.25
2023-04-21T07:46:08.711Z,16.88
2023-04-21T07:47:08.399Z,16.88
2023-04-21T07:48:08.448Z,16.88
2023-04-21T07:49:08.398Z,16.88
2023-04-21T07:50:08.658Z,16.88
2023-04-21T07:51:08.404Z,16.88
2023-04-21T07:52:08.394Z,16.88
2023-04-21T07:53:08.401Z,16.88
2023-04-21T07:54:08.415Z,16.88
2023-04-21T07:55:08.397Z,16.88
2023-04-21T07:56:08.402Z,16.88
2023-04-21T07:57:08.396Z,16.88
2023-04-21T07:58:08.402Z,16.88
2023-04-21T07:59:08.422Z,16.88
2023-04-21T08:00:08.432Z,16.88
2023-04-21T08:01:08.412Z,16.88
2023-04-21T08:02:08.547Z,16.88
2023-04-21T08:03:08.672Z,16.88
2023-04-21T08:04:08.535Z,16.88
2023-04-21T08:05:08.722Z,22.50
2023-04-21T08:06:08.509Z,22.50
2023-04-21T08:07:08.917Z,22.50
2023-04-21T08:08:08.425Z,22.50
2023-04-21T08:09:08.435Z,22.50
2023-04-21T08:10:08.407Z,22.50
2023-04-21T08:11:10.767Z,22.50
2023-04-21T08:12:08.412Z,22.50
2023-04-21T08:13:08.438Z,22.50
2023-04-21T08:14:08.464Z,22.50
2023-04-21T08:15:08.689Z,22.50
2023-04-21T08:16:08.449Z,22.50
2023-04-21T08:17:08.760Z,22.50
2023-04-21T08:18:08.508Z,28.13
2023-04-21T08:19:08.420Z,28.13
2023-04-21T08:20:08.419Z,28.13
2023-04-21T08:21:08.435Z,28.13
2023-04-21T08:22:08.453Z,28.13
2023-04-21T08:23:08.512Z,28.13
2023-04-21T08:24:08.456Z,28.13
2023-04-21T08:25:08.424Z,28.13
2023-04-21T08:26:08.432Z,28.13
2023-04-21T08:27:08.435Z,28.13
2023-04-21T08:28:08.448Z,28.13
2023-04-21T08:29:08.448Z,28.13
2023-04-21T08:30:08.432Z,28.13
2023-04-21T08:31:08.487Z,28.13
2023-04-21T08:32:08.849Z,28.13
2023-04-21T08:33:08.508Z,28.13
2023-04-21T08:34:08.458Z,28.13
2023-04-21T08:35:08.437Z,33.75
2023-04-21T08:36:18.139Z,33.75
2023-04-21T08:37:08.437Z,33.75
2023-04-21T08:38:08.440Z,33.75
2023-04-21T08:39:08.448Z,33.75
2023-04-21T08:40:08.437Z,33.75
2023-04-21T08:41:08.439Z,33.75
2023-04-21T08:42:08.439Z,33.75
2023-04-21T08:43:08.443Z,33.75
2023-04-21T08:44:08.445Z,33.75
2023-04-21T08:45:08.451Z,39.38
2023-04-21T08:46:08.515Z,39.38
2023-04-21T08:47:08.467Z,39.38
2023-04-21T08:48:08.472Z,39.38
2023-04-21T08:49:08.449Z,39.38
2023-04-21T08:50:08.449Z,39.38
2023-04-21T08:51:08.454Z,45.00
2023-04-21T08:52:08.454Z,45.00
2023-04-21T08:53:08.453Z,45.00
2023-04-21T08:54:08.459Z,45.00
2023-04-21T08:55:08.461Z,45.00
2023-04-21T08:56:11.433Z,45.00
2023-04-21T08:57:15.087Z,45.00
2023-04-21T08:58:08.469Z,45.00
2023-04-21T08:59:08.461Z,45.00
2023-04-21T09:00:08.510Z,45.00
2023-04-21T09:01:08.575Z,45.00
2023-04-21T09:02:08.552Z,45.00
2023-04-21T09:03:16.175Z,45.00
2023-04-21T09:04:08.666Z,45.00
2023-04-21T09:05:08.741Z,45.00
2023-04-21T09:06:09.401Z,50.63
2023-04-21T09:07:08.533Z,50.63
2023-04-21T09:08:08.482Z,50.63
2023-04-21T09:09:08.475Z,50.63
2023-04-21T09:10:08.490Z,50.63
2023-04-21T09:11:08.491Z,50.63
2023-04-21T09:12:08.481Z,50.63
2023-04-21T09:13:08.484Z,50.63
2023-04-21T09:14:08.486Z,50.63
2023-04-21T09:15:08.483Z,50.63
2023-04-21T09:16:08.830Z,50.63
2023-04-21T09:17:08.501Z,50.63
2023-04-21T09:18:08.514Z,50.63
2023-04-21T09:19:08.579Z,56.25
2023-04-21T09:20:08.496Z,56.25
2023-04-21T09:21:08.495Z,56.25
2023-04-21T09:22:08.494Z,56.25
2023-04-21T09:23:08.497Z,56.25
2023-04-21T09:24:08.499Z,56.25
2023-04-21T09:25:08.515Z,56.25
2023-04-21T09:26:08.500Z,56.25
2023-04-21T09:27:08.504Z,56.25
2023-04-21T09:28:08.514Z,56.25
2023-04-21T09:29:08.522Z,45.00
2023-04-21T09:30:08.514Z,39.38
2023-04-21T09:31:08.547Z,61.88
2023-04-21T09:32:10.898Z,61.88
2023-04-21T09:33:20.133Z,61.88
2023-04-21T09:34:08.573Z,67.50
2023-04-21T09:35:08.550Z,61.88
2023-04-21T09:36:08.528Z,67.50
2023-04-21T09:37:08.536Z,67.50
2023-04-21T09:38:08.527Z,73.13
2023-04-21T09:40:08.531Z,78.75
2023-04-21T09:41:08.540Z,106.88
2023-04-21T09:42:08.535Z,135.00
2023-04-21T09:43:08.547Z,1305.00
2023-04-21T09:44:08.574Z,2739.38
2023-04-21T09:46:08.586Z,2902.50
2023-04-21T09:47:08.564Z,2936.25
2023-04-21T09:48:08.900Z,2981.25
2023-04-21T09:49:08.605Z,2992.50
2023-04-21T09:50:12.239Z,3043.13
2023-04-21T09:52:18.773Z,1625.63
2023-04-21T09:53:08.611Z,50.63
2023-04-21T09:54:15.573Z,118.13
2023-04-21T09:55:08.628Z,28.13
2023-04-21T09:56:08.626Z,129.38
2023-04-21T09:57:08.634Z,73.13
2023-04-21T09:58:08.638Z,2733.75
2023-04-21T09:59:08.636Z,1108.13
2023-04-21T10:00:08.653Z,433.13
2023-04-21T10:01:08.796Z,343.13
2023-04-21T10:02:08.955Z,258.75
2023-04-21T10:03:08.819Z,174.38
2023-04-21T10:04:08.866Z,123.75
2023-04-21T10:05:08.760Z,95.63
2023-04-21T10:06:08.833Z,101.25
2023-04-21T10:07:08.703Z,140.63
2023-04-21T10:08:08.681Z,123.75
2023-04-21T10:09:08.685Z,112.50
2023-04-21T10:10:08.708Z,112.50
2023-04-21T10:11:08.701Z,112.50
2023-04-21T10:12:09.739Z,106.88
2023-04-21T10:13:08.697Z,112.50
2023-04-21T10:14:08.724Z,112.50
2023-04-21T10:15:08.706Z,112.50
2023-04-21T10:16:08.807Z,112.50
2023-04-21T10:17:08.714Z,112.50
2023-04-21T10:18:08.721Z,106.88
2023-04-21T10:19:08.728Z,106.88
2023-04-21T10:20:08.740Z,106.88
2023-04-21T10:21:08.742Z,106.88
2023-04-21T10:22:08.749Z,101.25
2023-04-21T10:23:08.766Z,95.63
2023-04-21T10:24:08.740Z,90.00
2023-04-21T10:25:08.738Z,33.75
2023-04-21T10:26:08.749Z,78.75
2023-04-21T10:27:08.749Z,73.13
2023-04-21T10:28:08.756Z,61.88
2023-04-21T10:29:08.763Z,50.63
2023-04-21T10:30:08.765Z,61.88
2023-04-21T10:31:08.840Z,56.25
2023-04-21T10:32:09.594Z,56.25
2023-04-21T10:33:08.809Z,56.25
2023-04-21T10:34:08.781Z,56.25
2023-04-21T10:35:08.781Z,45.00
2023-04-21T10:36:08.779Z,28.13
2023-04-21T10:37:08.779Z,22.50
2023-04-21T10:38:08.790Z,28.13
2023-04-21T10:39:08.815Z,28.13
2023-04-21T10:40:08.793Z,28.13
2023-04-21T10:41:08.796Z,28.13
2023-04-21T10:42:08.805Z,28.13
2023-04-21T10:43:08.811Z,33.75
2023-04-21T10:44:08.803Z,33.75
2023-04-21T10:45:08.815Z,33.75
2023-04-21T10:46:08.822Z,33.75
2023-04-21T10:47:08.888Z,61.88
2023-04-21T10:48:08.894Z,61.88
2023-04-21T10:49:08.830Z,67.50
2023-04-21T10:50:08.821Z,67.50
2023-04-21T10:51:08.827Z,61.88
2023-04-21T10:52:08.828Z,45.00
2023-04-21T10:53:08.832Z,50.63
2023-04-21T10:54:08.842Z,67.50
2023-04-21T10:55:08.862Z,56.25
2023-04-21T10:56:08.840Z,33.75
2023-04-21T10:57:08.853Z,33.75
2023-04-21T10:58:08.846Z,33.75
2023-04-21T10:59:08.848Z,33.75
2023-04-21T11:00:08.852Z,39.38
2023-04-21T11:01:08.892Z,61.88
2023-04-21T11:02:08.913Z,50.63
2023-04-21T11:03:09.123Z,61.88
2023-04-21T11:04:09.020Z,56.25
2023-04-21T11:05:08.943Z,33.75
2023-04-21T11:06:08.882Z,45.00
2023-04-21T11:07:08.899Z,28.13
2023-04-21T11:08:08.878Z,22.50
2023-04-21T11:09:08.880Z,22.50
2023-04-21T11:10:08.886Z,28.13
2023-04-21T11:11:08.967Z,28.13
2023-04-21T11:12:08.882Z,56.25
2023-04-21T11:13:08.896Z,28.13
2023-04-21T11:14:08.888Z,28.13
2023-04-21T11:15:08.897Z,39.38
2023-04-21T11:16:08.968Z,28.13
2023-04-21T11:17:08.956Z,28.13
2023-04-21T11:18:08.968Z,33.75
2023-04-21T11:19:08.899Z,28.13
2023-04-21T11:20:08.898Z,28.13
2023-04-21T11:21:08.909Z,28.13
2023-04-21T11:22:08.914Z,28.13
2023-04-21T11:23:08.915Z,28.13
2023-04-21T11:24:08.917Z,28.13
2023-04-21T11:25:08.912Z,28.13
2023-04-21T11:26:08.916Z,28.13
2023-04-21T11:27:08.936Z,28.13
2023-04-21T11:28:08.915Z,28.13
2023-04-21T11:29:08.934Z,28.13
2023-04-21T11:30:08.926Z,56.25
2023-04-21T11:31:08.963Z,56.25
2023-04-21T11:32:08.937Z,45.00
2023-04-21T11:33:08.988Z,56.25
2023-04-21T11:34:08.932Z,33.75
2023-04-21T11:35:08.943Z,28.13
2023-04-21T11:36:08.939Z,28.13
2023-04-21T11:37:08.962Z,28.13
2023-04-21T11:38:08.950Z,28.13
2023-04-21T11:39:08.948Z,28.13
2023-04-21T11:40:08.953Z,28.13
2023-04-21T11:41:08.953Z,28.13
2023-04-21T11:42:08.958Z,28.13
2023-04-21T11:43:08.981Z,28.13
2023-04-21T11:44:08.969Z,56.25
2023-04-21T11:45:08.972Z,50.63
2023-04-21T11:46:09.017Z,33.75
2023-04-21T11:47:09.017Z,28.13
2023-04-21T11:48:09.036Z,45.00
2023-04-21T11:49:08.975Z,39.38
2023-04-21T11:50:08.982Z,28.13
2023-04-21T11:51:08.980Z,22.50
2023-04-21T11:52:08.980Z,22.50
2023-04-21T11:53:08.984Z,22.50
2023-04-21T11:54:08.986Z,22.50
2023-04-21T11:55:08.989Z,22.50
2023-04-21T11:56:08.994Z,22.50
2023-04-21T11:57:09.078Z,22.50
2023-04-21T11:58:08.994Z,22.50
2023-04-21T11:59:09.017Z,22.50
2023-04-21T12:00:09.005Z,28.13
2023-04-21T12:01:09.052Z,22.50
2023-04-21T12:02:09.075Z,16.88
2023-04-21T12:03:09.240Z,16.88
2023-04-21T12:04:09.165Z,16.88
2023-04-21T12:05:09.487Z,16.88
2023-04-21T12:06:09.103Z,22.50
2023-04-21T12:07:09.060Z,22.50
2023-04-21T12:08:09.015Z,22.50
2023-04-21T12:09:09.012Z,22.50
2023-04-21T12:10:09.130Z,22.50
2023-04-21T12:11:09.077Z,16.88
2023-04-21T12:12:09.025Z,16.88
2023-04-21T12:13:09.021Z,16.88
2023-04-21T12:14:09.027Z,39.38
2023-04-21T12:15:09.057Z,39.38
2023-04-21T12:16:09.045Z,16.88
2023-04-21T12:17:09.035Z,16.88
2023-04-21T12:18:09.094Z,16.88
2023-04-21T12:19:09.047Z,16.88
2023-04-21T12:20:09.140Z,16.88
2023-04-21T12:21:09.094Z,16.88
2023-04-21T12:22:09.050Z,16.88
2023-04-21T12:23:09.038Z,16.88
2023-04-21T12:24:09.044Z,16.88
2023-04-21T12:25:09.056Z,16.88
2023-04-21T12:26:09.056Z,16.88
2023-04-21T12:27:09.049Z,16.88
2023-04-21T12:28:09.078Z,16.88
2023-04-21T12:29:09.056Z,16.88
2023-04-21T12:30:09.094Z,16.88
2023-04-21T12:31:09.194Z,16.88
2023-04-21T12:32:09.335Z,16.88
2023-04-21T12:33:09.150Z,16.88
2023-04-21T12:34:09.119Z,16.88
2023-04-21T12:35:09.074Z,22.50
2023-04-21T12:36:09.067Z,28.13
2023-04-21T12:37:09.090Z,16.88
2023-04-21T12:38:09.072Z,22.50
2023-04-21T12:39:09.076Z,33.75
2023-04-21T12:40:09.129Z,33.75
2023-04-21T12:41:09.080Z,33.75
2023-04-21T12:42:09.087Z,33.75
2023-04-21T12:43:09.097Z,22.50
2023-04-21T12:44:09.086Z,16.88
2023-04-21T12:45:09.087Z,22.50
2023-04-21T12:46:09.118Z,16.88
2023-04-21T12:47:09.110Z,28.13
2023-04-21T12:48:09.151Z,22.50
2023-04-21T12:49:09.105Z,22.50
2023-04-21T12:50:09.156Z,33.75
2023-04-21T12:51:09.115Z,33.75
2023-04-21T12:52:09.153Z,33.75
2023-04-21T12:53:09.101Z,33.75
2023-04-21T12:54:09.108Z,28.13
2023-04-21T12:55:09.122Z,16.88
2023-04-21T12:56:09.118Z,16.88
2023-04-21T12:57:09.107Z,16.88
2023-04-21T12:58:09.118Z,22.50
2023-04-21T12:59:09.115Z,16.88
2023-04-21T13:00:09.111Z,16.88
2023-04-21T13:01:09.227Z,16.88
2023-04-21T13:02:09.189Z,16.88
2023-04-21T13:03:09.252Z,16.88
2023-04-21T13:04:09.593Z,16.88
2023-04-21T13:05:09.124Z,16.88
2023-04-21T13:06:09.144Z,16.88
2023-04-21T13:07:09.133Z,16.88